createdAt,value
2023-03-22T00:00:22.622Z,613.00
2023-03-22T00:00:52.653Z,614.00
2023-03-22T00:01:22.707Z,613.00
2023-03-22T00:01:52.702Z,613.00
2023-03-22T00:02:22.748Z,612.00
2023-03-22T00:02:52.799Z,613.00
2023-03-22T00:03:22.889Z,613.00
2023-03-22T00:03:53.091Z,617.00
2023-03-22T00:04:23.006Z,617.00
2023-03-22T00:04:53.032Z,617.00
2023-03-22T00:05:23.057Z,619.00
2023-03-22T00:05:53.085Z,619.00
2023-03-22T00:06:23.110Z,619.00
2023-03-22T00:06:53.135Z,618.00
2023-03-22T00:07:23.160Z,617.00
2023-03-22T00:07:53.187Z,617.00
2023-03-22T00:08:23.208Z,618.00
2023-03-22T00:08:53.229Z,619.00
2023-03-22T00:09:23.260Z,617.00
2023-03-22T00:09:53.344Z,620.00
2023-03-22T00:10:23.397Z,620.00
2023-03-22T00:10:53.393Z,621.00
2023-03-22T00:11:23.424Z,619.00
2023-03-22T00:11:53.443Z,620.00
2023-03-22T00:12:23.461Z,619.00
2023-03-22T00:12:53.486Z,618.00
2023-03-22T00:13:23.510Z,617.00
2023-03-22T00:13:53.536Z,616.00
2023-03-22T00:14:23.555Z,614.00
2023-03-22T00:14:53.617Z,614.00
2023-03-22T00:15:23.639Z,615.00
2023-03-22T00:15:53.690Z,615.00
2023-03-22T00:16:23.736Z,617.00
2023-03-22T00:16:53.745Z,620.00
2023-03-22T00:17:23.796Z,621.00
2023-03-22T00:17:53.798Z,621.00
2023-03-22T00:18:23.828Z,619.00
2023-03-22T00:18:53.853Z,618.00
2023-03-22T00:19:23.898Z,619.00
2023-03-22T00:19:53.899Z,618.00
2023-03-22T00:20:23.923Z,617.00
2023-03-22T00:20:53.952Z,615.00
2023-03-22T00:21:23.974Z,615.00
2023-03-22T00:21:54.001Z,616.00
2023-03-22T00:22:24.020Z,613.00
2023-03-22T00:22:54.044Z,614.00
2023-03-22T00:23:24.073Z,616.00
2023-03-22T00:23:54.095Z,616.00
2023-03-22T00:24:24.121Z,615.00
2023-03-22T00:24:54.142Z,613.00
2023-03-22T00:25:24.163Z,614.00
2023-03-22T00:25:54.240Z,612.00
2023-03-22T00:26:24.233Z,611.00
2023-03-22T00:26:54.259Z,608.00
2023-03-22T00:27:24.281Z,605.00
2023-03-22T00:27:54.307Z,603.00
2023-03-22T00:28:24.322Z,605.00
2023-03-22T00:28:54.371Z,607.00
2023-03-22T00:29:24.370Z,607.00
2023-03-22T00:29:54.388Z,607.00
2023-03-22T00:30:24.428Z,609.00
2023-03-22T00:30:54.438Z,610.00
2023-03-22T00:31:24.523Z,610.00
2023-03-22T00:31:54.472Z,611.00
2023-03-22T00:32:24.498Z,609.00
2023-03-22T00:32:54.612Z,610.00
2023-03-22T00:33:24.728Z,610.00
2023-03-22T00:33:54.840Z,611.00
2023-03-22T00:34:24.955Z,612.00
2023-03-22T00:34:55.076Z,613.00
2023-03-22T00:35:25.124Z,613.00
2023-03-22T00:35:55.132Z,615.00
2023-03-22T00:36:25.157Z,617.00
2023-03-22T00:36:55.263Z,615.00
2023-03-22T00:37:25.379Z,615.00
2023-03-22T00:37:55.502Z,614.00
2023-03-22T00:38:41.251Z,614.00
2023-03-22T00:38:55.502Z,615.00
2023-03-22T00:39:25.610Z,615.00
2023-03-22T00:39:55.723Z,614.00
2023-03-22T00:40:25.845Z,613.00
2023-03-22T00:40:55.954Z,612.00
2023-03-22T00:41:26.103Z,612.00
2023-03-22T00:41:56.186Z,610.00
2023-03-22T00:42:26.298Z,605.00
2023-03-22T00:42:56.334Z,606.00
2023-03-22T00:43:26.359Z,605.00
2023-03-22T00:43:56.372Z,605.00
2023-03-22T00:44:26.395Z,606.00
2023-03-22T00:44:56.427Z,605.00
2023-03-22T00:45:26.444Z,605.00
2023-03-22T00:45:56.516Z,606.00
2023-03-22T00:46:26.579Z,607.00
2023-03-22T00:46:56.621Z,607.00
2023-03-22T00:47:26.648Z,608.00
2023-03-22T00:47:56.710Z,609.00
2023-03-22T00:48:26.707Z,609.00
2023-03-22T00:48:56.730Z,607.00
2023-03-22T00:49:26.754Z,606.00
2023-03-22T00:49:56.808Z,606.00
2023-03-22T00:50:26.818Z,604.00
2023-03-22T00:50:56.849Z,603.00
2023-03-22T00:51:26.889Z,603.00
2023-03-22T00:51:56.904Z,602.00
2023-03-22T00:52:26.945Z,600.00
2023-03-22T00:52:56.965Z,600.00
2023-03-22T00:53:26.986Z,601.00
2023-03-22T00:53:57.012Z,601.00
2023-03-22T00:54:27.037Z,602.00
2023-03-22T00:54:57.060Z,601.00
2023-03-22T00:55:27.092Z,600.00
2023-03-22T00:55:57.114Z,599.00
2023-03-22T00:56:27.154Z,599.00
2023-03-22T00:56:57.263Z,599.00
2023-03-22T00:57:27.255Z,598.00
2023-03-22T00:57:57.278Z,599.00
2023-03-22T00:58:27.303Z,599.00
2023-03-22T00:58:57.327Z,600.00
2023-03-22T00:59:27.361Z,601.00
2023-03-22T00:59:57.382Z,600.00
2023-03-22T01:00:27.407Z,601.00
2023-03-22T01:00:57.500Z,601.00
2023-03-22T01:01:27.672Z,600.00
2023-03-22T01:01:57.573Z,599.00
2023-03-22T01:02:27.602Z,599.00
2023-03-22T01:02:57.627Z,597.00
2023-03-22T01:03:27.725Z,599.00
2023-03-22T01:03:57.758Z,598.00
2023-03-22T01:04:27.789Z,598.00
2023-03-22T01:04:57.859Z,599.00
2023-03-22T01:05:27.875Z,599.00
2023-03-22T01:05:57.958Z,598.00
2023-03-22T01:06:27.983Z,598.00
2023-03-22T01:06:58.007Z,600.00
2023-03-22T01:07:28.029Z,600.00
2023-03-22T01:07:58.054Z,602.00
2023-03-22T01:08:28.084Z,603.00
2023-03-22T01:08:58.111Z,603.00
2023-03-22T01:09:28.135Z,603.00
2023-03-22T01:09:58.165Z,602.00
2023-03-22T01:10:28.184Z,601.00
2023-03-22T01:10:58.213Z,600.00
2023-03-22T01:11:28.240Z,602.00
2023-03-22T01:11:58.268Z,602.00
2023-03-22T01:12:28.328Z,604.00
2023-03-22T01:12:58.334Z,606.00
2023-03-22T01:13:28.354Z,607.00
2023-03-22T01:13:58.375Z,606.00
2023-03-22T01:14:28.407Z,607.00
2023-03-22T01:14:58.425Z,605.00
2023-03-22T01:15:28.458Z,604.00
2023-03-22T01:15:58.570Z,603.00
2023-03-22T01:16:28.639Z,603.00
2023-03-22T01:16:58.682Z,601.00
2023-03-22T01:17:28.701Z,601.00
2023-03-22T01:17:58.728Z,598.00
2023-03-22T01:18:28.753Z,596.00
2023-03-22T01:18:58.780Z,597.00
2023-03-22T01:19:28.815Z,598.00
2023-03-22T01:19:58.829Z,597.00
2023-03-22T01:20:28.861Z,597.00
2023-03-22T01:20:58.903Z,598.00
2023-03-22T01:21:28.928Z,599.00
2023-03-22T01:21:58.964Z,598.00
2023-03-22T01:22:28.990Z,597.00
2023-03-22T01:22:59.006Z,600.00
2023-03-22T01:23:29.045Z,601.00
2023-03-22T01:23:59.061Z,600.00
2023-03-22T01:24:29.086Z,600.00
2023-03-22T01:24:59.110Z,601.00
2023-03-22T01:25:29.194Z,600.00
2023-03-22T01:25:59.225Z,598.00
2023-03-22T01:26:29.251Z,597.00
2023-03-22T01:26:59.271Z,598.00
2023-03-22T01:27:29.306Z,595.00
2023-03-22T01:27:59.354Z,595.00
2023-03-22T01:28:29.382Z,598.00
2023-03-22T01:28:59.467Z,596.00
2023-03-22T01:29:29.491Z,597.00
2023-03-22T01:29:59.522Z,598.00
2023-03-22T01:30:29.604Z,598.00
2023-03-22T01:30:59.668Z,598.00
2023-03-22T01:31:29.686Z,596.00
2023-03-22T01:31:59.713Z,595.00
2023-03-22T01:32:29.739Z,596.00
2023-03-22T01:32:59.858Z,597.00
2023-03-22T01:33:29.964Z,596.00
2023-03-22T01:34:00.090Z,595.00
2023-03-22T01:34:30.192Z,593.00
2023-03-22T01:35:00.314Z,594.00
2023-03-22T01:35:30.445Z,592.00
2023-03-22T01:36:00.608Z,592.00
2023-03-22T01:36:30.606Z,589.00
2023-03-22T01:37:00.587Z,590.00
2023-03-22T01:37:30.696Z,589.00
2023-03-22T01:38:00.833Z,589.00
2023-03-22T01:38:30.823Z,590.00
2023-03-22T01:39:00.932Z,589.00
2023-03-22T01:39:31.036Z,588.00
2023-03-22T01:40:01.146Z,588.00
2023-03-22T01:40:31.262Z,588.00
2023-03-22T01:41:01.411Z,587.00
2023-03-22T01:41:31.389Z,584.00
2023-03-22T01:42:01.504Z,584.00
2023-03-22T01:42:31.501Z,583.00
2023-03-22T01:43:01.530Z,584.00
2023-03-22T01:43:31.590Z,585.00
2023-03-22T01:44:01.607Z,586.00
2023-03-22T01:44:31.627Z,586.00
2023-03-22T01:45:01.660Z,588.00
2023-03-22T01:45:31.680Z,590.00
2023-03-22T01:46:01.741Z,590.00
2023-03-22T01:46:31.813Z,589.00
2023-03-22T01:47:01.839Z,587.00
2023-03-22T01:47:31.862Z,586.00
2023-03-22T01:48:01.971Z,584.00
2023-03-22T01:48:31.975Z,586.00
2023-03-22T01:49:02.090Z,587.00
2023-03-22T01:49:32.060Z,587.00
2023-03-22T01:50:02.136Z,588.00
2023-03-22T01:50:32.178Z,590.00
2023-03-22T01:51:02.218Z,591.00
2023-03-22T01:51:32.237Z,590.00
2023-03-22T01:52:02.268Z,592.00
2023-03-22T01:52:32.286Z,591.00
2023-03-22T01:53:02.316Z,591.00
2023-03-22T01:53:32.353Z,591.00
2023-03-22T01:54:02.393Z,591.00
2023-03-22T01:54:32.407Z,590.00
2023-03-22T01:55:02.433Z,590.00
2023-03-22T01:55:32.456Z,590.00
2023-03-22T01:56:02.494Z,590.00
2023-03-22T01:56:32.513Z,589.00
2023-03-22T01:57:02.549Z,585.00
2023-03-22T01:57:32.567Z,586.00
2023-03-22T01:58:02.593Z,585.00
2023-03-22T01:58:32.619Z,586.00
2023-03-22T01:59:02.679Z,586.00
2023-03-22T01:59:32.682Z,587.00
2023-03-22T02:00:02.702Z,586.00
2023-03-22T02:00:32.770Z,586.00
2023-03-22T02:01:02.845Z,582.00
2023-03-22T02:01:32.885Z,581.00
2023-03-22T02:02:02.926Z,580.00
2023-03-22T02:02:32.974Z,582.00
2023-03-22T02:03:03.085Z,583.00
2023-03-22T02:03:33.138Z,583.00
2023-03-22T02:04:03.162Z,585.00
2023-03-22T02:04:33.183Z,586.00
2023-03-22T02:05:03.208Z,584.00
2023-03-22T02:05:33.227Z,584.00
2023-03-22T02:06:03.300Z,586.00
2023-03-22T02:06:33.325Z,586.00
2023-03-22T02:07:03.344Z,587.00
2023-03-22T02:07:33.377Z,588.00
2023-03-22T02:08:03.392Z,590.00
2023-03-22T02:08:33.411Z,588.00
2023-03-22T02:09:03.456Z,591.00
2023-03-22T02:09:33.476Z,591.00
2023-03-22T02:10:03.502Z,591.00
2023-03-22T02:10:33.536Z,589.00
2023-03-22T02:11:03.575Z,587.00
2023-03-22T02:11:33.620Z,586.00
2023-03-22T02:12:03.626Z,588.00
2023-03-22T02:12:33.647Z,589.00
2023-03-22T02:13:03.671Z,590.00
2023-03-22T02:13:33.691Z,592.00
2023-03-22T02:14:03.753Z,591.00
2023-03-22T02:14:33.772Z,592.00
2023-03-22T02:15:03.776Z,592.00
2023-03-22T02:15:33.889Z,591.00
2023-03-22T02:16:04.163Z,591.00
2023-03-22T02:16:34.002Z,591.00
2023-03-22T02:17:04.020Z,589.00
2023-03-22T02:17:34.058Z,591.00
2023-03-22T02:18:04.066Z,594.00
2023-03-22T02:18:34.089Z,594.00
2023-03-22T02:19:04.131Z,593.00
2023-03-22T02:19:34.137Z,592.00
2023-03-22T02:20:04.168Z,593.00
2023-03-22T02:20:34.196Z,594.00
2023-03-22T02:21:04.229Z,593.00
2023-03-22T02:21:34.252Z,593.00
2023-03-22T02:22:04.336Z,593.00
2023-03-22T02:22:34.332Z,594.00
2023-03-22T02:23:04.360Z,594.00
2023-03-22T02:23:34.399Z,593.00
2023-03-22T02:24:04.407Z,594.00
2023-03-22T02:24:34.423Z,593.00
2023-03-22T02:25:04.445Z,594.00
2023-03-22T02:25:34.476Z,594.00
2023-03-22T02:26:04.494Z,594.00
2023-03-22T02:26:34.528Z,593.00
2023-03-22T02:27:04.562Z,593.00
2023-03-22T02:27:34.592Z,591.00
2023-03-22T02:28:04.613Z,591.00
2023-03-22T02:28:34.636Z,591.00
2023-03-22T02:29:04.668Z,591.00
2023-03-22T02:29:34.690Z,589.00
2023-03-22T02:30:04.738Z,590.00
2023-03-22T02:30:34.734Z,591.00
2023-03-22T02:31:04.898Z,593.00
2023-03-22T02:31:34.822Z,593.00
2023-03-22T02:32:04.820Z,592.00
2023-03-22T02:32:34.829Z,592.00
2023-03-22T02:33:04.938Z,594.00
2023-03-22T02:33:35.049Z,594.00
2023-03-22T02:34:05.167Z,595.00
2023-03-22T02:34:35.270Z,595.00
2023-03-22T02:35:05.390Z,596.00
2023-03-22T02:35:35.524Z,594.00
2023-03-22T02:36:05.553Z,591.00
2023-03-22T02:36:35.553Z,592.00
2023-03-22T02:37:05.652Z,594.00
2023-03-22T02:37:35.765Z,594.00
2023-03-22T02:38:05.874Z,594.00
2023-03-22T02:38:35.989Z,594.00
2023-03-22T02:39:06.101Z,594.00
2023-03-22T02:39:36.221Z,595.00
2023-03-22T02:40:06.346Z,595.00
2023-03-22T02:40:36.652Z,597.00
2023-03-22T02:41:06.471Z,597.00
2023-03-22T02:41:36.463Z,597.00
2023-03-22T02:42:06.584Z,595.00
2023-03-22T02:42:36.590Z,594.00
2023-03-22T02:43:06.606Z,596.00
2023-03-22T02:43:36.642Z,595.00
2023-03-22T02:44:06.679Z,594.00
2023-03-22T02:44:36.698Z,595.00
2023-03-22T02:45:06.725Z,594.00
2023-03-22T02:45:36.780Z,593.00
2023-03-22T02:46:06.799Z,593.00
2023-03-22T02:46:36.922Z,593.00
2023-03-22T02:47:06.929Z,594.00
2023-03-22T02:47:36.956Z,594.00
2023-03-22T02:48:07.058Z,594.00
2023-03-22T02:48:37.066Z,596.00
2023-03-22T02:49:07.089Z,595.00
2023-03-22T02:49:37.116Z,593.00
2023-03-22T02:50:07.133Z,595.00
2023-03-22T02:50:37.330Z,594.00
2023-03-22T02:51:07.273Z,590.00
2023-03-22T02:51:37.295Z,591.00
2023-03-22T02:52:07.338Z,591.00
2023-03-22T02:52:37.340Z,592.00
2023-03-22T02:53:07.369Z,590.00
2023-03-22T02:53:37.420Z,589.00
2023-03-22T02:54:07.435Z,588.00
2023-03-22T02:54:37.475Z,589.00
2023-03-22T02:55:07.495Z,589.00
2023-03-22T02:55:37.510Z,587.00
2023-03-22T02:56:07.628Z,588.00
2023-03-22T02:56:37.652Z,587.00
2023-03-22T02:57:07.675Z,588.00
2023-03-22T02:57:37.713Z,587.00
2023-03-22T02:58:07.738Z,588.00
2023-03-22T02:58:37.765Z,589.00
2023-03-22T02:59:07.785Z,590.00
2023-03-22T02:59:37.778Z,590.00
2023-03-22T03:00:07.804Z,591.00
2023-03-22T03:00:38.406Z,592.00
2023-03-22T03:01:08.042Z,593.00
2023-03-22T03:01:38.062Z,592.00
2023-03-22T03:02:08.060Z,592.00
2023-03-22T03:02:38.082Z,592.00
2023-03-22T03:03:08.109Z,594.00
2023-03-22T03:03:38.130Z,593.00
2023-03-22T03:04:08.148Z,593.00
2023-03-22T03:04:38.173Z,593.00
2023-03-22T03:05:08.198Z,594.00
2023-03-22T03:05:38.216Z,591.00
2023-03-22T03:06:08.247Z,591.00
2023-03-22T03:06:38.267Z,591.00
2023-03-22T03:07:08.294Z,594.00
2023-03-22T03:07:38.316Z,592.00
2023-03-22T03:08:08.341Z,592.00
2023-03-22T03:08:38.395Z,592.00
2023-03-22T03:09:08.408Z,590.00
2023-03-22T03:09:38.430Z,588.00
2023-03-22T03:10:08.510Z,590.00
2023-03-22T03:10:38.853Z,591.00
2023-03-22T03:11:08.538Z,590.00
2023-03-22T03:11:38.563Z,591.00
2023-03-22T03:12:08.586Z,592.00
2023-03-22T03:12:38.611Z,593.00
2023-03-22T03:13:08.635Z,591.00
2023-03-22T03:13:38.654Z,588.00
2023-03-22T03:14:08.684Z,588.00
2023-03-22T03:14:38.703Z,587.00
2023-03-22T03:15:08.725Z,587.00
2023-03-22T03:15:38.754Z,586.00
2023-03-22T03:16:08.912Z,583.00
2023-03-22T03:16:38.942Z,584.00
2023-03-22T03:17:08.841Z,587.00
2023-03-22T03:17:38.869Z,587.00
2023-03-22T03:18:08.915Z,586.00
2023-03-22T03:18:38.926Z,585.00
2023-03-22T03:19:08.961Z,585.00
2023-03-22T03:19:38.971Z,584.00
2023-03-22T03:20:08.993Z,583.00
2023-03-22T03:20:39.481Z,583.00
2023-03-22T03:21:09.036Z,584.00
2023-03-22T03:21:39.061Z,584.00
2023-03-22T03:22:09.082Z,585.00
2023-03-22T03:22:39.119Z,583.00
2023-03-22T03:23:09.153Z,583.00
2023-03-22T03:23:39.169Z,583.00
2023-03-22T03:24:09.193Z,582.00
2023-03-22T03:24:39.226Z,584.00
2023-03-22T03:25:09.240Z,584.00
2023-03-22T03:25:39.264Z,585.00
2023-03-22T03:26:09.310Z,585.00
2023-03-22T03:26:39.354Z,587.00
2023-03-22T03:27:09.366Z,587.00
2023-03-22T03:27:39.471Z,586.00
2023-03-22T03:28:09.499Z,588.00
2023-03-22T03:28:39.509Z,588.00
2023-03-22T03:29:09.556Z,587.00
2023-03-22T03:29:39.570Z,586.00
2023-03-22T03:30:09.587Z,588.00
2023-03-22T03:30:39.933Z,588.00
2023-03-22T03:31:09.738Z,587.00
2023-03-22T03:31:39.826Z,586.00
2023-03-22T03:32:09.878Z,586.00
2023-03-22T03:32:39.862Z,587.00
2023-03-22T03:33:09.979Z,585.00
2023-03-22T03:33:40.089Z,585.00
2023-03-22T03:34:10.215Z,588.00
2023-03-22T03:34:40.325Z,588.00
2023-03-22T03:35:10.441Z,587.00
2023-03-22T03:35:40.579Z,586.00
2023-03-22T03:36:10.582Z,586.00
2023-03-22T03:36:40.573Z,589.00
2023-03-22T03:37:10.680Z,592.00
2023-03-22T03:37:40.792Z,590.00
2023-03-22T03:38:10.905Z,591.00
2023-03-22T03:38:41.015Z,589.00
2023-03-22T03:39:11.133Z,591.00
2023-03-22T03:39:41.241Z,591.00
2023-03-22T03:40:11.358Z,590.00
2023-03-22T03:40:41.708Z,590.00
2023-03-22T03:41:11.796Z,591.00
2023-03-22T03:41:41.542Z,590.00
2023-03-22T03:42:11.642Z,590.00
2023-03-22T03:42:41.654Z,591.00
2023-03-22T03:43:11.680Z,592.00
2023-03-22T03:43:41.711Z,591.00
2023-03-22T03:44:11.740Z,589.00
2023-03-22T03:44:41.769Z,590.00
2023-03-22T03:45:11.792Z,590.00
2023-03-22T03:45:41.892Z,591.00
2023-03-22T03:46:12.028Z,590.00
2023-03-22T03:46:41.920Z,589.00
2023-03-22T03:47:11.944Z,588.00
2023-03-22T03:47:42.051Z,588.00
2023-03-22T03:48:12.139Z,588.00
2023-03-22T03:48:42.073Z,586.00
2023-03-22T03:49:12.095Z,586.00
2023-03-22T03:49:42.170Z,586.00
2023-03-22T03:50:12.197Z,586.00
2023-03-22T03:50:42.424Z,586.00
2023-03-22T03:51:12.248Z,587.00
2023-03-22T03:51:42.272Z,585.00
2023-03-22T03:52:12.340Z,584.00
2023-03-22T03:52:42.345Z,585.00
2023-03-22T03:53:12.356Z,582.00
2023-03-22T03:53:42.375Z,582.00
2023-03-22T03:54:12.410Z,584.00
2023-03-22T03:54:42.428Z,586.00
2023-03-22T03:55:12.446Z,586.00
2023-03-22T03:55:42.472Z,587.00
2023-03-22T03:56:12.508Z,588.00
2023-03-22T03:56:42.546Z,590.00
2023-03-22T03:57:12.566Z,591.00
2023-03-22T03:57:42.604Z,593.00
2023-03-22T03:58:12.616Z,593.00
2023-03-22T03:58:42.652Z,593.00
2023-03-22T03:59:12.698Z,593.00
2023-03-22T03:59:42.720Z,591.00
2023-03-22T04:00:12.744Z,590.00
2023-03-22T04:00:42.760Z,589.00
2023-03-22T04:01:12.801Z,588.00
2023-03-22T04:01:42.856Z,592.00
2023-03-22T04:02:12.885Z,590.00
2023-03-22T04:02:42.907Z,588.00
2023-03-22T04:03:12.954Z,589.00
2023-03-22T04:03:42.956Z,589.00
2023-03-22T04:04:13.005Z,591.00
2023-03-22T04:04:43.180Z,592.00
2023-03-22T04:05:13.190Z,591.00
2023-03-22T04:05:43.220Z,592.00
2023-03-22T04:06:13.264Z,591.00
2023-03-22T04:06:43.286Z,592.00
2023-03-22T04:07:13.319Z,593.00
2023-03-22T04:07:43.349Z,590.00
2023-03-22T04:08:13.384Z,590.00
2023-03-22T04:08:43.387Z,590.00
2023-03-22T04:09:13.408Z,588.00
2023-03-22T04:09:43.435Z,586.00
2023-03-22T04:10:13.454Z,588.00
2023-03-22T04:10:43.487Z,587.00
2023-03-22T04:11:13.527Z,588.00
2023-03-22T04:11:43.546Z,587.00
2023-03-22T04:12:13.568Z,588.00
2023-03-22T04:12:43.588Z,589.00
2023-03-22T04:13:13.612Z,588.00
2023-03-22T04:13:43.634Z,587.00
2023-03-22T04:14:13.660Z,588.00
2023-03-22T04:14:43.684Z,590.00
2023-03-22T04:15:13.722Z,588.00
2023-03-22T04:15:43.736Z,592.00
2023-03-22T04:16:13.813Z,590.00
2023-03-22T04:16:43.846Z,592.00
2023-03-22T04:17:13.856Z,591.00
2023-03-22T04:17:43.888Z,591.00
2023-03-22T04:18:13.910Z,590.00
2023-03-22T04:18:43.972Z,590.00
2023-03-22T04:19:13.964Z,588.00
2023-03-22T04:19:43.988Z,588.00
2023-03-22T04:20:14.023Z,589.00
2023-03-22T04:20:44.038Z,589.00
2023-03-22T04:21:14.084Z,588.00
2023-03-22T04:21:44.109Z,586.00
2023-03-22T04:22:14.128Z,585.00
2023-03-22T04:22:44.156Z,585.00
2023-03-22T04:23:14.194Z,584.00
2023-03-22T04:23:44.204Z,587.00
2023-03-22T04:24:14.240Z,586.00
2023-03-22T04:24:44.255Z,584.00
2023-03-22T04:25:14.281Z,582.00
2023-03-22T04:25:44.296Z,582.00
2023-03-22T04:26:14.408Z,582.00
2023-03-22T04:26:44.430Z,581.00
2023-03-22T04:27:14.454Z,582.00
2023-03-22T04:27:44.477Z,584.00
2023-03-22T04:28:14.501Z,584.00
2023-03-22T04:28:44.524Z,585.00
2023-03-22T04:29:14.538Z,585.00
2023-03-22T04:29:44.564Z,585.00
2023-03-22T04:30:14.585Z,586.00
2023-03-22T04:30:44.659Z,587.00
2023-03-22T04:31:14.766Z,587.00
2023-03-22T04:31:44.774Z,588.00
2023-03-22T04:32:14.798Z,589.00
2023-03-22T04:32:44.795Z,589.00
2023-03-22T04:33:14.903Z,588.00
2023-03-22T04:33:45.019Z,588.00
2023-03-22T04:34:15.160Z,588.00
2023-03-22T04:34:45.245Z,589.00
2023-03-22T04:35:15.356Z,589.00
2023-03-22T04:35:45.602Z,587.00
2023-03-22T04:36:15.550Z,588.00
2023-03-22T04:36:45.530Z,591.00
2023-03-22T04:37:15.646Z,591.00
2023-03-22T04:37:45.822Z,594.00
2023-03-22T04:38:15.801Z,595.00
2023-03-22T04:38:45.914Z,591.00
2023-03-22T04:39:16.026Z,592.00
2023-03-22T04:39:46.137Z,588.00
2023-03-22T04:40:16.284Z,601.00
2023-03-22T04:40:46.265Z,594.00
2023-03-22T04:41:16.379Z,593.00
2023-03-22T04:41:46.491Z,597.00
2023-03-22T04:42:16.600Z,601.00
2023-03-22T04:42:46.623Z,605.00
2023-03-22T04:43:16.641Z,602.00
2023-03-22T04:43:46.667Z,599.00
2023-03-22T04:44:16.689Z,594.00
2023-03-22T04:44:46.720Z,595.00
2023-03-22T04:45:16.747Z,596.00
2023-03-22T04:45:46.774Z,595.00
2023-03-22T04:46:16.889Z,595.00
2023-03-22T04:46:46.992Z,596.00
2023-03-22T04:47:16.917Z,595.00
2023-03-22T04:47:47.022Z,596.00
2023-03-22T04:48:17.067Z,596.00
2023-03-22T04:48:47.068Z,596.00
2023-03-22T04:49:17.144Z,597.00
2023-03-22T04:49:47.172Z,597.00
2023-03-22T04:50:17.180Z,597.00
2023-03-22T04:50:47.201Z,596.00
2023-03-22T04:51:17.270Z,594.00
2023-03-22T04:51:47.288Z,593.00
2023-03-22T04:52:17.311Z,591.00
2023-03-22T04:52:47.359Z,592.00
2023-03-22T04:53:17.393Z,591.00
2023-03-22T04:53:47.430Z,591.00
2023-03-22T04:54:17.522Z,589.00
2023-03-22T04:54:47.606Z,589.00
2023-03-22T04:55:17.673Z,590.00
2023-03-22T04:55:47.687Z,588.00
2023-03-22T04:56:17.708Z,588.00
2023-03-22T04:56:47.736Z,589.00
2023-03-22T04:57:17.766Z,592.00
2023-03-22T04:57:47.790Z,592.00
2023-03-22T04:58:17.813Z,593.00
2023-03-22T04:58:47.835Z,593.00
2023-03-22T04:59:17.879Z,594.00
2023-03-22T04:59:47.891Z,594.00
2023-03-22T05:00:17.914Z,595.00
2023-03-22T05:00:47.947Z,597.00
2023-03-22T05:01:18.056Z,597.00
2023-03-22T05:01:48.028Z,597.00
2023-03-22T05:02:18.051Z,598.00
2023-03-22T05:02:48.124Z,595.00
2023-03-22T05:03:18.149Z,596.00
2023-03-22T05:03:48.173Z,596.00
2023-03-22T05:04:18.196Z,598.00
2023-03-22T05:04:48.251Z,596.00
2023-03-22T05:05:18.251Z,596.00
2023-03-22T05:05:48.278Z,596.00
2023-03-22T05:06:18.303Z,595.00
2023-03-22T05:06:48.344Z,595.00
2023-03-22T05:07:18.386Z,593.00
2023-03-22T05:07:48.397Z,594.00
2023-03-22T05:08:18.413Z,595.00
2023-03-22T05:08:48.446Z,595.00
2023-03-22T05:09:18.465Z,597.00
2023-03-22T05:09:48.487Z,596.00
2023-03-22T05:10:18.513Z,595.00
2023-03-22T05:10:48.533Z,594.00
2023-03-22T05:11:18.558Z,594.00
2023-03-22T05:11:48.589Z,593.00
2023-03-22T05:12:18.616Z,593.00
2023-03-22T05:12:48.633Z,592.00
2023-03-22T05:13:18.664Z,594.00
2023-03-22T05:13:48.688Z,594.00
2023-03-22T05:14:18.733Z,593.00
2023-03-22T05:14:48.863Z,589.00
2023-03-22T05:15:18.782Z,593.00
2023-03-22T05:15:48.826Z,595.00
2023-03-22T05:16:18.877Z,595.00
2023-03-22T05:16:48.918Z,596.00
2023-03-22T05:17:18.946Z,596.00
2023-03-22T05:17:48.971Z,597.00
2023-03-22T05:18:18.995Z,596.00
2023-03-22T05:18:49.019Z,597.00
2023-03-22T05:19:19.047Z,595.00
2023-03-22T05:19:49.073Z,596.00
2023-03-22T05:20:19.121Z,597.00
2023-03-22T05:20:49.136Z,594.00
2023-03-22T05:21:19.139Z,596.00
2023-03-22T05:21:49.173Z,598.00
2023-03-22T05:22:19.280Z,600.00
2023-03-22T05:22:49.283Z,600.00
2023-03-22T05:23:19.374Z,599.00
2023-03-22T05:23:51.459Z,598.00
2023-03-22T05:24:19.466Z,597.00
2023-03-22T05:24:49.500Z,594.00
2023-03-22T05:25:19.541Z,592.00
2023-03-22T05:25:49.561Z,593.00
2023-03-22T05:26:19.590Z,594.00
2023-03-22T05:26:49.615Z,599.00
2023-03-22T05:27:20.094Z,600.00
2023-03-22T05:27:49.750Z,602.00
2023-03-22T05:28:19.808Z,606.00
2023-03-22T05:28:49.823Z,612.00
2023-03-22T05:29:19.855Z,618.00
2023-03-22T05:29:49.894Z,620.00
2023-03-22T05:30:19.909Z,620.00
2023-03-22T05:30:49.936Z,625.00
2023-03-22T05:31:19.960Z,633.00
2023-03-22T05:31:50.072Z,633.00
2023-03-22T05:32:20.019Z,636.00
2023-03-22T05:32:50.010Z,638.00
2023-03-22T05:33:20.121Z,641.00
2023-03-22T05:33:50.238Z,641.00
2023-03-22T05:34:20.364Z,642.00
2023-03-22T05:34:50.468Z,644.00
2023-03-22T05:35:20.636Z,643.00
2023-03-22T05:35:50.682Z,643.00
2023-03-22T05:36:20.667Z,641.00
2023-03-22T05:36:50.791Z,640.00
2023-03-22T05:37:20.774Z,640.00
2023-03-22T05:37:50.890Z,639.00
2023-03-22T05:38:21.000Z,638.00
2023-03-22T05:38:51.107Z,640.00
2023-03-22T05:39:21.138Z,640.00
2023-03-22T05:39:51.263Z,640.00
2023-03-22T05:40:21.370Z,640.00
2023-03-22T05:40:51.487Z,642.00
2023-03-22T05:41:21.597Z,642.00
2023-03-22T05:41:51.606Z,641.00
2023-03-22T05:42:21.720Z,640.00
2023-03-22T05:42:51.742Z,638.00
2023-03-22T05:43:21.786Z,639.00
2023-03-22T05:43:51.801Z,639.00
2023-03-22T05:44:21.833Z,638.00
2023-03-22T05:44:51.863Z,638.00
2023-03-22T05:45:21.891Z,639.00
2023-03-22T05:45:51.941Z,638.00
2023-03-22T05:46:21.997Z,636.00
2023-03-22T05:46:52.377Z,635.00
2023-03-22T05:47:22.070Z,631.00
2023-03-22T05:47:52.109Z,630.00
2023-03-22T05:48:22.263Z,632.00
2023-03-22T05:48:52.354Z,628.00
2023-03-22T05:49:22.307Z,630.00
2023-03-22T05:49:52.370Z,630.00
2023-03-22T05:50:22.384Z,630.00
2023-03-22T05:50:52.421Z,629.00
2023-03-22T05:51:22.457Z,629.00
2023-03-22T05:51:52.476Z,631.00
2023-03-22T05:52:22.498Z,631.00
2023-03-22T05:52:52.565Z,630.00
2023-03-22T05:53:22.634Z,627.00
2023-03-22T05:53:52.678Z,625.00
2023-03-22T05:54:22.709Z,622.00
2023-03-22T05:54:52.738Z,623.00
2023-03-22T05:55:22.764Z,622.00
2023-03-22T05:55:52.779Z,621.00
2023-03-22T05:56:22.831Z,619.00
2023-03-22T05:56:55.630Z,617.00
2023-03-22T05:57:22.974Z,614.00
2023-03-22T05:57:52.999Z,609.00
2023-03-22T05:58:23.023Z,608.00
2023-03-22T05:58:53.053Z,605.00
2023-03-22T05:59:23.076Z,600.00
2023-03-22T05:59:53.104Z,598.00
2023-03-22T06:00:23.132Z,593.00
2023-03-22T06:00:53.150Z,590.00
2023-03-22T06:01:23.226Z,588.00
2023-03-22T06:01:53.309Z,585.00
2023-03-22T06:02:23.346Z,579.00
2023-03-22T06:02:53.384Z,569.00
2023-03-22T06:03:23.493Z,566.00
2023-03-22T06:03:53.518Z,561.00
2023-03-22T06:04:23.560Z,560.00
2023-03-22T06:04:53.608Z,558.00
2023-03-22T06:05:23.646Z,554.00
2023-03-22T06:05:53.658Z,554.00
2023-03-22T06:06:23.691Z,552.00
2023-03-22T06:06:53.743Z,552.00
2023-03-22T06:07:23.760Z,551.00
2023-03-22T06:07:53.799Z,551.00
2023-03-22T06:08:26.469Z,554.00
2023-03-22T06:08:55.314Z,554.00
2023-03-22T06:09:23.899Z,555.00
2023-03-22T06:09:53.908Z,554.00
2023-03-22T06:10:23.958Z,553.00
2023-03-22T06:10:53.962Z,551.00
2023-03-22T06:11:23.988Z,548.00
2023-03-22T06:11:54.023Z,548.00
2023-03-22T06:12:24.043Z,547.00
2023-03-22T06:12:54.203Z,546.00
2023-03-22T06:13:24.209Z,548.00
2023-03-22T06:13:54.155Z,547.00
2023-03-22T06:14:24.181Z,547.00
2023-03-22T06:14:54.202Z,546.00